Detall de PIREP

Printer-friendly versionPDF version

[2015/03/29 06:26:00]
Flight IATA:CT2110
Pilot Number:041
Company ICAO:CAT
Aircraft Type:A320/E
PAX:110
Departing Airport: LEVC
Destination Airport: LEST
Alternate Airport:LEMD
Online: VATSIM
Route:CENTA A33 PRADO UN733 FORNO
Flight Level:FL350
No Slew and time accel
No pause
Crash detect
Detect pilot in Cockpit between each 30 and 45 minutes
06:26 Zero fuel Weight: 136751 Lbs, Fuel Weight: 21082 Lbs
06:26 VATSIM:LEVC 290600Z 26003KT CAVOK 11/08 Q1022 NOSIG
06:26 VATSIM:LEST 290600Z 26004KT 210V300 8000 BCFG -DZ FEW002 BKN006 09/09 Q1031 TEMPO 0350 FG
06:27 VOICE CATALONIAN
06:30 Parking Brakes off
06:38 Take-off
06:38 Take off Weight: 156776 Lbs
06:38 Wind: 078º @ 001 Knots Heading: 295º
06:38 POS N39º 29´ 45´´ W000º 29´ 58´´
06:38 Flaps:3 at 189 Knots
06:38 Gear Up: 190 Knots
06:39 Flaps:2 at 165 Knots
06:39 Flaps:1 at 182 Knots
06:39 Flaps:0 at 212 Knots
06:53 Wind:301º@031 Knots Heading: 299º Ground Speed: 405 Knots Altitude 29790 ft
06:57 TOC
06:57 Fuel Weight: 15569 Lb
07:08 Wind:270º@034 Knots Heading: 294º Ground Speed: 416 Knots Altitude 35380 ft
07:23 Wind:323º@043 Knots Heading: 306º Ground Speed: 402 Knots Altitude 35423 ft
07:23 TOD
07:23 Fuel Weight: 13059 Lb
07:38 Wind:279º@031 Knots Heading: 301º Ground Speed: 280 Knots Altitude 15439 ft
07:53 Wind:049º@002 Knots Heading: 034º Ground Speed: 243 Knots Altitude 3398 ft
07:53 Flaps:1 at 241 Knots
07:53 Flaps:3 at 211 Knots
07:53 Flaps:2 at 202 Knots
07:53 Flaps:3 at 201 Knots
07:54 Flaps:4 at 173 Knots
07:54 Gear Down: 171 Knots
07:54 Flaps:5 at 155 Knots
07:55 TouchDown:Rate -141 ft/min Speed: 132 Knots
07:55 Flaps:0 at 91 Knots
07:55 VATSIM:LEST 290730Z VRB02KT 8000 0600SE BCFG SCT001 SCT003 BKN016 10/10 Q1031 REDZ TEMPO 0350 FG
07:55 Land
07:55 Wind:076º@001 Knots
07:55 Heading: 347º
07:55 Flight Duration: 01:17
07:55 Landing Weight: 147307 Lbs
07:55 POS N42º 53´ 35´´ W008º 24´ 50´´
07:57 Parking brakes on
07:57 Block to Block Duration: 01:27
07:57 Final Fuel: 10363 Lbls
07:57 Spent Fuel: 10718 Lbls
07:57 Flight Length: 436 NM
07:57 TOD Land Length: 147 NM

Exportar CSV

Powered by Drupal - Modified by Danger4k